7MA0 weather

Digital (Boxboro) Heliport
Boxborough, Massachusetts, United States

Public forecast

Using degrees Fahrenheit for public forecast. Weather courtesy of forecast.io.

METAR (pilot weather report)

Closest report is Laurence G Hanscom Field, 8.5 nm (15.8 km) ESE. Retrieved 2019/09/15 08:44 UTC (0 seconds ago):

KBED 150844Z AUTO 00000KT 2 1/2SM HZ CLR 19/16 A3011 RMK AO2 VIS 1 1/2V3 T01890161

TAF (pilot weather forecast)

Forecast is more than 12 hours old.

Closest forecast is Laurence G Hanscom Field, 8.5 nm (15.8 km) ESE. Retrieved 2019/09/14 00:33 UTC (1 day ago):

TAF KBED 142330Z 1500/1524 20007KT P6SM BKN045 FM150500 21007KT P6SM VCSH BKN020 FM150700 22005KT P6SM BKN015 FM151000 24003KT P6SM BKN040 FM151300 28004KT P6SM SCT050